Salt Lake City, Utah
Traffic Map
Current Weather Conditions
Salt Lake City, Utah
Broken Clouds
Broken Clouds
35°
Feels Like: 29°
Wind Chill: 29° Ceiling: 6000
Heat Index: 35° Visibility: 7mi
Dew Point: 34° Wind: 8mph
Humidity: 96% Direction: 140° (SE)
Pressure: 29.95in Gusts: 0mph
Raw Report DataKSLC 110833Z 14007KT 7SM FEW004 SCT027 BKN060 02/01 A2995 RMK AO2 T00170011 $
Traffic Incident Summary
Active as of:
Severity:
Category:
InformationThere was an issue retrieving the traffic information for this location. Please try a different location or try again shortly.
Advertisements
Track Severe Weather on mobile